createdAt,value
2023-03-10T00:03:21.903Z,95.29
2023-03-10T00:08:26.097Z,95.78
2023-03-10T00:13:27.907Z,95.41
2023-03-10T00:18:28.563Z,95.58
2023-03-10T00:23:30.587Z,94.88
2023-03-10T00:28:31.214Z,95.53
2023-03-10T00:33:33.153Z,95.91
2023-03-10T00:38:35.853Z,95.25
2023-03-10T00:43:36.891Z,94.63
2023-03-10T00:48:38.050Z,94.55
2023-03-10T00:53:41.425Z,94.46
2023-03-10T00:58:42.286Z,94.66
2023-03-10T01:03:43.125Z,94.80
2023-03-10T01:08:45.112Z,93.73
2023-03-10T01:13:47.874Z,93.87
2023-03-10T01:18:48.729Z,93.98
2023-03-10T01:23:50.849Z,93.15
2023-03-10T01:28:51.516Z,92.52
2023-03-10T01:33:52.445Z,92.52
2023-03-10T01:38:56.200Z,92.96
2023-03-10T01:43:59.122Z,91.91
2023-03-10T01:49:03.556Z,91.65
2023-03-10T01:54:10.404Z,91.69
2023-03-10T01:59:12.098Z,91.48
2023-03-10T02:04:17.437Z,90.91
2023-03-10T02:09:21.103Z,90.29
2023-03-10T02:14:21.845Z,90.44
2023-03-10T02:19:38.711Z,89.41
2023-03-10T02:24:48.024Z,89.71
2023-03-10T02:29:59.848Z,89.05
2023-03-10T02:35:05.595Z,88.73
2023-03-10T02:40:29.756Z,88.83
2023-03-10T02:45:34.096Z,87.22
2023-03-10T02:50:38.954Z,88.06
2023-03-10T02:55:39.675Z,87.14
2023-03-10T03:00:44.898Z,85.69
2023-03-10T03:05:48.245Z,85.05
2023-03-10T03:10:49.464Z,85.44
2023-03-10T03:15:52.121Z,85.72
2023-03-10T03:20:53.189Z,85.30
2023-03-10T03:25:53.922Z,84.62
2023-03-10T03:30:57.668Z,85.62
2023-03-10T03:35:58.533Z,85.66
2023-03-10T03:40:59.671Z,86.35
2023-03-10T03:46:02.447Z,86.11
2023-03-10T03:51:03.614Z,86.62
2023-03-10T03:56:10.973Z,85.95
2023-03-10T04:01:15.616Z,86.11
2023-03-10T04:06:21.122Z,86.23
2023-03-10T04:11:22.073Z,86.89
2023-03-10T04:16:27.060Z,86.91
2023-03-10T04:21:27.862Z,86.61
2023-03-10T04:26:31.050Z,86.76
2023-03-10T04:31:33.388Z,87.38
2023-03-10T04:36:35.820Z,86.80
2023-03-10T04:41:37.973Z,87.18
2023-03-10T04:46:41.006Z,87.02
2023-03-10T04:51:42.643Z,86.25
2023-03-10T04:56:43.603Z,85.37
2023-03-10T05:01:46.217Z,84.19
2023-03-10T05:06:51.460Z,83.18
2023-03-10T05:11:57.213Z,82.94
2023-03-10T05:17:00.541Z,82.23
2023-03-10T05:22:02.203Z,81.10
2023-03-10T05:27:05.539Z,79.79
2023-03-10T05:32:08.924Z,80.27
2023-03-10T05:37:13.284Z,80.07
2023-03-10T05:42:14.140Z,79.55
2023-03-10T05:47:19.205Z,78.30
2023-03-10T05:52:21.052Z,77.32
2023-03-10T05:57:22.771Z,76.36
2023-03-10T06:02:24.749Z,76.59
2023-03-10T06:07:25.414Z,74.97
2023-03-10T06:12:26.055Z,75.62
2023-03-10T06:17:28.195Z,75.23
2023-03-10T06:22:31.156Z,75.17
2023-03-10T06:27:32.776Z,74.52
2023-03-10T06:32:36.359Z,73.29
2023-03-10T06:37:37.068Z,73.55
2023-03-10T06:42:37.746Z,72.47
2023-03-10T06:47:40.028Z,73.04
2023-03-10T06:52:42.574Z,73.45
2023-03-10T06:57:43.407Z,73.80
2023-03-10T07:02:45.480Z,74.20
2023-03-10T07:07:46.274Z,73.92
2023-03-10T07:12:49.778Z,73.69
2023-03-10T07:17:51.761Z,73.97
2023-03-10T07:22:52.991Z,72.96
2023-03-10T07:27:53.642Z,73.23
2023-03-10T07:32:55.722Z,73.33
2023-03-10T07:37:56.673Z,72.18
2023-03-10T07:42:57.349Z,72.00
2023-03-10T07:48:01.863Z,71.81
2023-03-10T07:53:02.680Z,71.13
2023-03-10T07:58:03.428Z,72.01
2023-03-10T08:03:05.422Z,70.36
2023-03-10T08:08:06.555Z,69.60
2023-03-10T08:13:07.265Z,69.81
2023-03-10T08:18:09.708Z,68.55
2023-03-10T08:23:10.413Z,67.88
2023-03-10T08:28:11.107Z,66.64
2023-03-10T08:33:13.274Z,65.51
2023-03-10T08:38:13.988Z,65.03
2023-03-10T08:43:14.931Z,64.43
2023-03-10T08:48:16.979Z,64.49
2023-03-10T08:53:17.702Z,66.10
2023-03-10T08:58:18.582Z,64.54
2023-03-10T09:03:21.396Z,65.01
2023-03-10T09:08:22.455Z,63.96
2023-03-10T09:13:23.296Z,62.58
2023-03-10T09:18:25.268Z,61.47
2023-03-10T09:23:25.938Z,61.87
2023-03-10T09:28:26.577Z,60.14
2023-03-10T09:33:28.634Z,60.47
2023-03-10T09:38:29.831Z,59.41
2023-03-10T09:43:37.764Z,60.94
2023-03-10T09:48:51.340Z,61.13
2023-03-10T09:54:03.196Z,60.71
2023-03-10T09:59:11.282Z,60.15
2023-03-10T10:04:16.833Z,58.42
2023-03-10T10:09:27.312Z,57.19
2023-03-10T10:14:31.599Z,56.81
2023-03-10T10:19:36.772Z,55.58
2023-03-10T10:24:38.627Z,53.59
2023-03-10T10:29:42.361Z,52.49
2023-03-10T10:34:46.551Z,52.32
2023-03-10T10:39:50.809Z,52.22
2023-03-10T10:44:54.346Z,51.61
2023-03-10T10:50:09.353Z,51.86
2023-03-10T10:55:29.322Z,50.25
2023-03-10T11:00:32.469Z,50.97
2023-03-10T11:05:37.615Z,50.65
2023-03-10T11:10:39.184Z,51.16
2023-03-10T11:15:50.422Z,51.42
2023-03-10T11:20:59.588Z,50.47
2023-03-10T11:26:05.316Z,50.49
2023-03-10T11:31:18.489Z,51.23
2023-03-10T11:36:31.721Z,51.21
2023-03-10T11:41:37.340Z,49.51
2023-03-10T11:46:44.461Z,50.06
2023-03-10T11:51:50.044Z,49.94
2023-03-10T11:56:51.951Z,49.56
2023-03-10T12:01:56.547Z,50.30
2023-03-10T12:07:05.601Z,50.28
2023-03-10T12:12:08.459Z,49.96
2023-03-10T12:17:12.980Z,50.13
2023-03-10T12:22:39.083Z,49.67
2023-03-10T12:28:14.386Z,50.39
2023-03-10T12:33:44.228Z,49.50
2023-03-10T12:38:51.071Z,50.39
2023-03-10T12:43:56.785Z,51.36
2023-03-10T12:49:13.715Z,49.46
2023-03-10T12:54:48.993Z,49.58
2023-03-10T12:59:58.080Z,49.36
2023-03-10T13:05:03.764Z,49.50
2023-03-10T13:10:07.818Z,49.01
2023-03-10T13:15:24.806Z,48.20
2023-03-10T13:20:25.632Z,46.52
2023-03-10T13:25:28.520Z,45.52
2023-03-10T13:30:31.378Z,46.76
2023-03-10T13:35:36.050Z,48.20
2023-03-10T13:40:42.218Z,47.78
2023-03-10T13:45:43.482Z,47.02
2023-03-10T13:50:44.254Z,47.83
2023-03-10T13:55:46.298Z,46.85
2023-03-10T14:00:50.636Z,46.96
2023-03-10T14:05:51.376Z,46.83
2023-03-10T14:10:53.484Z,47.80
2023-03-10T14:15:55.718Z,47.78
2023-03-10T14:20:57.022Z,48.61
2023-03-10T14:25:59.377Z,50.31
2023-03-10T14:31:02.572Z,53.60
2023-03-10T14:36:12.078Z,62.80
2023-03-10T14:41:15.246Z,72.90
2023-03-10T14:46:16.163Z,78.71
2023-03-10T14:51:34.564Z,81.77
2023-03-10T14:56:37.583Z,81.74
2023-03-10T15:01:38.335Z,83.59
2023-03-10T15:06:39.119Z,84.24
2023-03-10T15:11:42.122Z,84.00
2023-03-10T15:16:42.875Z,83.75
2023-03-10T15:21:43.567Z,83.13
2023-03-10T15:26:45.786Z,81.28
2023-03-10T15:31:46.897Z,78.75
2023-03-10T15:36:47.699Z,78.58
2023-03-10T15:41:50.286Z,77.05
2023-03-10T15:46:55.008Z,75.52
2023-03-10T15:51:56.156Z,73.11
2023-03-10T15:56:58.116Z,73.40
2023-03-10T16:01:58.984Z,72.81
2023-03-10T16:07:03.365Z,73.16
2023-03-10T16:12:06.322Z,73.73
2023-03-10T16:17:07.045Z,73.23
2023-03-10T16:22:10.307Z,74.03
2023-03-10T16:27:13.060Z,73.75
2023-03-10T16:32:14.953Z,74.78
2023-03-10T16:37:15.739Z,73.54
2023-03-10T16:42:18.341Z,72.78
2023-03-10T16:47:19.050Z,72.76
2023-03-10T16:52:19.721Z,71.92
2023-03-10T16:57:21.811Z,72.60
2023-03-10T17:02:22.480Z,73.17
2023-03-10T17:07:23.293Z,73.66
2023-03-10T17:12:25.274Z,72.97
2023-03-10T17:17:26.001Z,72.76
2023-03-10T17:22:26.795Z,70.54
2023-03-10T17:27:29.023Z,70.25
2023-03-10T17:32:30.764Z,71.54
2023-03-10T17:37:31.616Z,70.34
2023-03-10T17:42:33.680Z,70.15
2023-03-10T17:47:34.381Z,69.94
2023-03-10T17:52:35.082Z,70.19
2023-03-10T17:57:39.048Z,70.48
2023-03-10T18:02:41.191Z,71.22
2023-03-10T18:07:41.981Z,71.73
2023-03-10T18:12:44.029Z,71.88
2023-03-10T18:17:44.752Z,71.58
2023-03-10T18:22:45.650Z,72.12
2023-03-10T18:27:47.912Z,72.50
2023-03-10T18:32:48.655Z,72.80
2023-03-10T18:37:49.376Z,72.89
2023-03-10T18:42:51.414Z,72.36
2023-03-10T18:47:52.190Z,73.22
2023-03-10T18:52:52.937Z,73.62
2023-03-10T18:57:55.152Z,73.55
2023-03-10T19:02:55.979Z,73.40
2023-03-10T19:07:56.885Z,72.98
2023-03-10T19:12:59.084Z,73.45
2023-03-10T19:17:59.887Z,73.87
2023-03-10T19:23:00.616Z,73.27
2023-03-10T19:28:02.666Z,72.91
2023-03-10T19:33:03.640Z,72.06
2023-03-10T19:38:04.369Z,71.14
2023-03-10T19:43:06.444Z,70.87
2023-03-10T19:48:07.523Z,72.24
2023-03-10T19:53:08.193Z,73.29
2023-03-10T19:58:10.327Z,74.21
2023-03-10T20:03:11.019Z,75.19
2023-03-10T20:08:11.715Z,76.10
2023-03-10T20:13:14.295Z,77.91
2023-03-10T20:18:18.369Z,79.78
2023-03-10T20:23:19.080Z,80.38
2023-03-10T20:28:21.129Z,79.23
2023-03-10T20:33:21.928Z,78.51
2023-03-10T20:38:22.845Z,78.11
2023-03-10T20:43:24.875Z,77.37
2023-03-10T20:48:25.609Z,77.15
2023-03-10T20:53:26.353Z,76.88
2023-03-10T20:58:28.804Z,75.44
2023-03-10T21:03:29.451Z,74.11
2023-03-10T21:08:30.144Z,74.09
2023-03-10T21:13:32.386Z,74.47
2023-03-10T21:18:33.174Z,74.16
2023-03-10T21:23:35.672Z,73.29
2023-03-10T21:28:42.433Z,73.99
2023-03-10T21:33:43.315Z,73.45
2023-03-10T21:38:44.066Z,73.28
2023-03-10T21:43:46.112Z,73.37
2023-03-10T21:48:46.930Z,73.09
2023-03-10T21:53:48.281Z,72.34
2023-03-10T21:58:50.540Z,72.52
2023-03-10T22:03:51.390Z,72.80
2023-03-10T22:08:52.063Z,73.78
2023-03-10T22:13:54.461Z,73.30
2023-03-10T22:18:55.153Z,73.80
2023-03-10T22:23:55.817Z,74.53
2023-03-10T22:28:57.835Z,75.30
2023-03-10T22:33:58.502Z,75.30
2023-03-10T22:38:59.161Z,76.07
2023-03-10T22:44:01.149Z,76.21
2023-03-10T22:49:01.888Z,77.05
2023-03-10T22:54:03.828Z,78.01
2023-03-10T22:59:06.000Z,77.23
2023-03-10T23:04:06.978Z,77.10
2023-03-10T23:09:10.380Z,76.84
2023-03-10T23:14:12.739Z,76.16
2023-03-10T23:19:13.463Z,77.55
2023-03-10T23:24:14.191Z,77.05
2023-03-10T23:29:19.486Z,79.08
2023-03-10T23:34:20.188Z,78.67
2023-03-10T23:39:20.882Z,78.99
2023-03-10T23:44:22.988Z,78.34
2023-03-10T23:49:23.707Z,79.36
2023-03-10T23:54:24.466Z,77.66
2023-03-10T23:59:26.726Z,77.82
